sensor_id;sensor_type;location;lat;lon;timestamp;pressure;altitude;pressure_sealevel;temperature;humidity
69796;BME280;57073;45.650;9.612;2023-04-09T00:00:40;99540.78;;;9.05;50.45
69796;BME280;57073;45.650;9.612;2023-04-09T00:05:40;99546.19;;;9.05;50.48
69796;BME280;57073;45.650;9.612;2023-04-09T00:10:41;99543.38;;;9.19;49.87
69796;BME280;57073;45.650;9.612;2023-04-09T00:15:41;99528.34;;;9.11;50.30
69796;BME280;57073;45.650;9.612;2023-04-09T00:20:42;99528.47;;;8.98;50.87
69796;BME280;57073;45.650;9.612;2023-04-09T00:25:43;99526.84;;;8.97;51.20
69796;BME280;57073;45.650;9.612;2023-04-09T00:30:43;99524.59;;;8.87;51.48
69796;BME280;57073;45.650;9.612;2023-04-09T00:35:44;99526.44;;;8.93;50.59
69796;BME280;57073;45.650;9.612;2023-04-09T00:40:48;99527.28;;;8.87;51.00
69796;BME280;57073;45.650;9.612;2023-04-09T00:45:49;99525.06;;;8.84;51.57
69796;BME280;57073;45.650;9.612;2023-04-09T00:50:50;99525.91;;;8.78;51.24
69796;BME280;57073;45.650;9.612;2023-04-09T00:55:52;99534.31;;;8.88;50.42
69796;BME280;57073;45.650;9.612;2023-04-09T01:00:52;99539.69;;;8.88;50.47
69796;BME280;57073;45.650;9.612;2023-04-09T01:11:37;99544.69;;;8.84;50.26
69796;BME280;57073;45.650;9.612;2023-04-09T01:16:43;99545.88;;;8.88;49.89
69796;BME280;57073;45.650;9.612;2023-04-09T01:21:47;99540.06;;;8.66;50.38
69796;BME280;57073;45.650;9.612;2023-04-09T01:27:05;99548.56;;;8.63;51.19
69796;BME280;57073;45.650;9.612;2023-04-09T01:32:06;99550.53;;;8.49;51.23
69796;BME280;57073;45.650;9.612;2023-04-09T01:37:07;99559.22;;;8.45;51.75
69796;BME280;57073;45.650;9.612;2023-04-09T01:42:09;99552.69;;;8.27;51.98
69796;BME280;57073;45.650;9.612;2023-04-09T01:47:10;99562.59;;;8.34;52.40
69796;BME280;57073;45.650;9.612;2023-04-09T01:52:11;99559.13;;;8.26;52.19
69796;BME280;57073;45.650;9.612;2023-04-09T01:57:12;99560.34;;;8.30;51.37
69796;BME280;57073;45.650;9.612;2023-04-09T02:02:18;99561.88;;;8.51;50.80
69796;BME280;57073;45.650;9.612;2023-04-09T02:07:36;99567.03;;;8.53;50.46
69796;BME280;57073;45.650;9.612;2023-04-09T02:12:39;99567.72;;;8.42;50.72
69796;BME280;57073;45.650;9.612;2023-04-09T02:17:42;99560.88;;;8.46;50.86
69796;BME280;57073;45.650;9.612;2023-04-09T02:22:42;99562.91;;;8.50;51.15
69796;BME280;57073;45.650;9.612;2023-04-09T02:27:43;99562.88;;;8.57;50.24
69796;BME280;57073;45.650;9.612;2023-04-09T02:32:43;99568.09;;;8.45;51.59
69796;BME280;57073;45.650;9.612;2023-04-09T02:37:43;99564.56;;;8.51;51.49
69796;BME280;57073;45.650;9.612;2023-04-09T02:42:44;99564.97;;;8.55;51.71
69796;BME280;57073;45.650;9.612;2023-04-09T02:47:44;99564.50;;;8.58;51.86
69796;BME280;57073;45.650;9.612;2023-04-09T02:52:45;99568.44;;;8.62;51.97
69796;BME280;57073;45.650;9.612;2023-04-09T02:57:46;99565.56;;;8.57;51.75
69796;BME280;57073;45.650;9.612;2023-04-09T03:02:46;99561.50;;;8.48;52.86
69796;BME280;57073;45.650;9.612;2023-04-09T03:07:47;99557.06;;;8.60;51.45
69796;BME280;57073;45.650;9.612;2023-04-09T03:12:48;99558.53;;;8.56;51.12
69796;BME280;57073;45.650;9.612;2023-04-09T03:17:48;99558.59;;;8.49;51.27
69796;BME280;57073;45.650;9.612;2023-04-09T03:22:49;99555.50;;;8.46;50.89
69796;BME280;57073;45.650;9.612;2023-04-09T03:27:49;99552.66;;;8.34;51.03
69796;BME280;57073;45.650;9.612;2023-04-09T03:32:50;99547.13;;;8.29;50.89
69796;BME280;57073;45.650;9.612;2023-04-09T03:37:50;99551.69;;;8.28;51.37
69796;BME280;57073;45.650;9.612;2023-04-09T03:42:50;99553.38;;;8.23;51.21
69796;BME280;57073;45.650;9.612;2023-04-09T03:47:51;99552.19;;;8.12;51.56
69796;BME280;57073;45.650;9.612;2023-04-09T03:52:51;99551.75;;;8.15;51.97
69796;BME280;57073;45.650;9.612;2023-04-09T03:57:51;99555.47;;;8.14;51.45
69796;BME280;57073;45.650;9.612;2023-04-09T04:02:52;99558.75;;;8.16;51.21
69796;BME280;57073;45.650;9.612;2023-04-09T04:07:52;99561.50;;;8.09;51.46
69796;BME280;57073;45.650;9.612;2023-04-09T04:12:53;99558.56;;;8.11;51.78
69796;BME280;57073;45.650;9.612;2023-04-09T04:17:53;99569.75;;;8.08;51.27
69796;BME280;57073;45.650;9.612;2023-04-09T04:22:54;99560.94;;;7.94;51.47
69796;BME280;57073;45.650;9.612;2023-04-09T04:27:54;99571.00;;;8.05;51.44
69796;BME280;57073;45.650;9.612;2023-04-09T04:32:55;99574.38;;;7.87;52.38
69796;BME280;57073;45.650;9.612;2023-04-09T04:37:55;99592.56;;;7.85;51.88
69796;BME280;57073;45.650;9.612;2023-04-09T04:42:56;99591.31;;;7.88;51.23
69796;BME280;57073;45.650;9.612;2023-04-09T04:47:56;99591.94;;;7.83;51.73
69796;BME280;57073;45.650;9.612;2023-04-09T04:52:56;99600.63;;;7.85;51.51
69796;BME280;57073;45.650;9.612;2023-04-09T04:57:57;99592.34;;;7.87;51.68
69796;BME280;57073;45.650;9.612;2023-04-09T05:02:57;99600.63;;;7.85;51.13
69796;BME280;57073;45.650;9.612;2023-04-09T05:07:58;99604.91;;;8.00;51.04
69796;BME280;57073;45.650;9.612;2023-04-09T05:12:58;99604.50;;;8.03;50.71
69796;BME280;57073;45.650;9.612;2023-04-09T05:17:58;99612.13;;;8.06;50.84
69796;BME280;57073;45.650;9.612;2023-04-09T05:22:59;99604.44;;;8.16;50.93
69796;BME280;57073;45.650;9.612;2023-04-09T05:28:00;99606.28;;;8.22;50.68
69796;BME280;57073;45.650;9.612;2023-04-09T05:33:00;99616.56;;;8.32;50.89
69796;BME280;57073;45.650;9.612;2023-04-09T05:38:01;99625.19;;;8.41;50.69
69796;BME280;57073;45.650;9.612;2023-04-09T05:43:01;99625.59;;;8.44;50.19
69796;BME280;57073;45.650;9.612;2023-04-09T05:48:01;99631.09;;;8.56;50.19
69796;BME280;57073;45.650;9.612;2023-04-09T05:53:02;99636.41;;;8.69;50.29
69796;BME280;57073;45.650;9.612;2023-04-09T05:58:02;99639.63;;;8.85;50.23
69796;BME280;57073;45.650;9.612;2023-04-09T06:03:03;99651.72;;;9.07;49.27
69796;BME280;57073;45.650;9.612;2023-04-09T06:08:04;99655.28;;;9.26;48.91
69796;BME280;57073;45.650;9.612;2023-04-09T06:13:04;99659.63;;;9.53;48.39
69796;BME280;57073;45.650;9.612;2023-04-09T06:18:05;99670.72;;;9.63;48.51
69796;BME280;57073;45.650;9.612;2023-04-09T06:23:05;99680.31;;;9.77;48.21
69796;BME280;57073;45.650;9.612;2023-04-09T06:28:06;99676.44;;;9.92;48.08
69796;BME280;57073;45.650;9.612;2023-04-09T06:33:06;99679.13;;;9.92;47.87
69796;BME280;57073;45.650;9.612;2023-04-09T06:38:07;99674.81;;;10.09;47.36
69796;BME280;57073;45.650;9.612;2023-04-09T06:43:09;99670.78;;;10.37;46.04
69796;BME280;57073;45.650;9.612;2023-04-09T06:48:10;99666.69;;;10.95;44.68
69796;BME280;57073;45.650;9.612;2023-04-09T06:53:10;99672.53;;;11.46;44.04
69796;BME280;57073;45.650;9.612;2023-04-09T06:58:10;99684.31;;;12.10;44.10
69796;BME280;57073;45.650;9.612;2023-04-09T07:03:11;99685.22;;;12.80;43.42
69796;BME280;57073;45.650;9.612;2023-04-09T07:08:11;99684.38;;;13.42;42.08
69796;BME280;57073;45.650;9.612;2023-04-09T07:13:12;99697.69;;;13.78;41.80
69796;BME280;57073;45.650;9.612;2023-04-09T07:18:12;99700.56;;;14.27;40.52
69796;BME280;57073;45.650;9.612;2023-04-09T07:23:12;99696.78;;;14.72;40.74
69796;BME280;57073;45.650;9.612;2023-04-09T07:28:13;99696.03;;;14.55;38.86
69796;BME280;57073;45.650;9.612;2023-04-09T07:33:13;99697.13;;;14.32;40.53
69796;BME280;57073;45.650;9.612;2023-04-09T07:38:13;99704.31;;;14.43;41.00
69796;BME280;57073;45.650;9.612;2023-04-09T07:43:15;99694.41;;;14.54;40.72
69796;BME280;57073;45.650;9.612;2023-04-09T07:48:16;99708.41;;;14.90;40.90
69796;BME280;57073;45.650;9.612;2023-04-09T07:53:17;99715.22;;;14.92;41.08
69796;BME280;57073;45.650;9.612;2023-04-09T07:58:17;99709.97;;;14.86;39.82
69796;BME280;57073;45.650;9.612;2023-04-09T08:03:17;99707.94;;;14.76;40.38
69796;BME280;57073;45.650;9.612;2023-04-09T08:08:18;99708.78;;;14.98;39.47
69796;BME280;57073;45.650;9.612;2023-04-09T08:13:19;99712.75;;;14.69;40.61
69796;BME280;57073;45.650;9.612;2023-04-09T08:18:19;99715.34;;;15.03;40.70
69796;BME280;57073;45.650;9.612;2023-04-09T08:23:20;99717.75;;;14.99;39.72
69796;BME280;57073;45.650;9.612;2023-04-09T08:28:20;99722.31;;;15.20;39.74
69796;BME280;57073;45.650;9.612;2023-04-09T08:33:20;99724.69;;;14.90;39.30
69796;BME280;57073;45.650;9.612;2023-04-09T08:38:21;99727.97;;;14.92;40.15
69796;BME280;57073;45.650;9.612;2023-04-09T08:43:21;99718.84;;;15.03;41.38
69796;BME280;57073;45.650;9.612;2023-04-09T08:48:23;99723.13;;;14.50;41.12
69796;BME280;57073;45.650;9.612;2023-04-09T08:53:24;99729.19;;;14.18;41.12
69796;BME280;57073;45.650;9.612;2023-04-09T08:58:25;99728.50;;;14.28;42.58
69796;BME280;57073;45.650;9.612;2023-04-09T09:03:25;99731.34;;;14.16;42.85
69796;BME280;57073;45.650;9.612;2023-04-09T09:08:25;99730.53;;;13.98;43.79
69796;BME280;57073;45.650;9.612;2023-04-09T09:13:26;99739.28;;;13.83;43.56
69796;BME280;57073;45.650;9.612;2023-04-09T09:18:43;99735.41;;;13.96;44.50
69796;BME280;57073;45.650;9.612;2023-04-09T09:23:44;99724.25;;;14.15;44.57
69796;BME280;57073;45.650;9.612;2023-04-09T09:28:46;99730.91;;;14.24;44.80
69796;BME280;57073;45.650;9.612;2023-04-09T09:33:48;99718.19;;;14.47;44.05
69796;BME280;57073;45.650;9.612;2023-04-09T09:38:57;99714.59;;;14.19;43.13
69796;BME280;57073;45.650;9.612;2023-04-09T09:43:57;99722.03;;;14.51;42.53
69796;BME280;57073;45.650;9.612;2023-04-09T09:48:58;99716.75;;;14.00;43.73
69796;BME280;57073;45.650;9.612;2023-04-09T09:53:59;99706.88;;;13.77;43.22
69796;BME280;57073;45.650;9.612;2023-04-09T09:59:08;99711.63;;;14.20;43.34
69796;BME280;57073;45.650;9.612;2023-04-09T10:04:13;99711.41;;;14.27;43.28
69796;BME280;57073;45.650;9.612;2023-04-09T10:09:14;99705.38;;;14.42;42.90
69796;BME280;57073;45.650;9.612;2023-04-09T10:14:16;99700.69;;;14.59;42.18
69796;BME280;57073;45.650;9.612;2023-04-09T10:19:18;99703.94;;;14.83;42.87
69796;BME280;57073;45.650;9.612;2023-04-09T10:24:19;99700.78;;;14.87;41.64
69796;BME280;57073;45.650;9.612;2023-04-09T10:29:27;99694.41;;;14.54;41.58
69796;BME280;57073;45.650;9.612;2023-04-09T10:34:28;99693.78;;;14.47;41.08
69796;BME280;57073;45.650;9.612;2023-04-09T10:39:32;99696.72;;;14.67;41.49
69796;BME280;57073;45.650;9.612;2023-04-09T10:44:32;99693.06;;;14.56;41.29
69796;BME280;57073;45.650;9.612;2023-04-09T10:49:39;99690.38;;;14.83;41.32
69796;BME280;57073;45.650;9.612;2023-04-09T10:54:44;99679.59;;;15.16;41.19
69796;BME280;57073;45.650;9.612;2023-04-09T10:59:52;99663.41;;;15.26;39.78
69796;BME280;57073;45.650;9.612;2023-04-09T11:10:21;99659.06;;;14.98;39.75
69796;BME280;57073;45.650;9.612;2023-04-09T11:15:21;99658.97;;;15.15;39.36
69796;BME280;57073;45.650;9.612;2023-04-09T11:20:23;99654.75;;;15.34;39.35
69796;BME280;57073;45.650;9.612;2023-04-09T11:25:26;99652.56;;;14.50;39.41
69796;BME280;57073;45.650;9.612;2023-04-09T11:30:27;99649.38;;;14.58;39.19
69796;BME280;57073;45.650;9.612;2023-04-09T11:35:28;99650.69;;;14.77;38.99
69796;BME280;57073;45.650;9.612;2023-04-09T11:40:28;99641.16;;;15.29;39.02
69796;BME280;57073;45.650;9.612;2023-04-09T11:45:29;99633.78;;;15.25;39.10
69796;BME280;57073;45.650;9.612;2023-04-09T11:50:31;99628.44;;;15.35;38.45
69796;BME280;57073;45.650;9.612;2023-04-09T11:55:32;99618.13;;;15.37;37.74
69796;BME280;57073;45.650;9.612;2023-04-09T12:00:32;99610.78;;;15.37;37.54
69796;BME280;57073;45.650;9.612;2023-04-09T12:05:33;99612.81;;;15.57;36.65
69796;BME280;57073;45.650;9.612;2023-04-09T12:10:37;99601.78;;;15.32;36.75
69796;BME280;57073;45.650;9.612;2023-04-09T12:15:39;99595.34;;;15.06;36.50
69796;BME280;57073;45.650;9.612;2023-04-09T12:20:43;99602.00;;;14.93;37.72
69796;BME280;57073;45.650;9.612;2023-04-09T12:25:45;99594.13;;;15.29;37.25
69796;BME280;57073;45.650;9.612;2023-04-09T12:30:46;99594.78;;;15.09;37.22
69796;BME280;57073;45.650;9.612;2023-04-09T12:35:48;99590.84;;;15.27;36.84
69796;BME280;57073;45.650;9.612;2023-04-09T12:40:48;99583.00;;;15.30;35.77
69796;BME280;57073;45.650;9.612;2023-04-09T12:45:48;99588.09;;;15.22;36.11
69796;BME280;57073;45.650;9.612;2023-04-09T12:50:49;99581.56;;;15.17;34.36
69796;BME280;57073;45.650;9.612;2023-04-09T12:55:49;99593.72;;;15.10;36.08
69796;BME280;57073;45.650;9.612;2023-04-09T13:00:50;99571.88;;;15.32;35.57
69796;BME280;57073;45.650;9.612;2023-04-09T13:05:52;99575.19;;;15.39;35.63
69796;BME280;57073;45.650;9.612;2023-04-09T13:10:52;99570.00;;;15.00;35.14
69796;BME280;57073;45.650;9.612;2023-04-09T13:15:52;99567.47;;;15.20;35.26
69796;BME280;57073;45.650;9.612;2023-04-09T13:20:53;99562.16;;;14.98;35.08
69796;BME280;57073;45.650;9.612;2023-04-09T13:25:53;99545.06;;;15.03;35.39
69796;BME280;57073;45.650;9.612;2023-04-09T13:30:54;99541.19;;;15.31;34.79
69796;BME280;57073;45.650;9.612;2023-04-09T13:35:54;99531.25;;;15.52;34.83
69796;BME280;57073;45.650;9.612;2023-04-09T13:40:54;99527.22;;;15.17;35.33
69796;BME280;57073;45.650;9.612;2023-04-09T13:45:55;99525.22;;;15.45;34.88
69796;BME280;57073;45.650;9.612;2023-04-09T13:50:56;99516.03;;;15.51;33.97
69796;BME280;57073;45.650;9.612;2023-04-09T13:55:56;99508.47;;;15.69;34.50
69796;BME280;57073;45.650;9.612;2023-04-09T14:00:57;99502.47;;;15.56;34.21
69796;BME280;57073;45.650;9.612;2023-04-09T14:05:57;99501.13;;;15.64;33.92
69796;BME280;57073;45.650;9.612;2023-04-09T14:10:57;99499.25;;;15.17;34.46
69796;BME280;57073;45.650;9.612;2023-04-09T14:15:58;99493.38;;;15.35;34.29
69796;BME280;57073;45.650;9.612;2023-04-09T14:20:58;99488.31;;;15.49;34.19
69796;BME280;57073;45.650;9.612;2023-04-09T14:26:00;99486.03;;;15.36;33.82
69796;BME280;57073;45.650;9.612;2023-04-09T14:31:01;99478.75;;;15.47;34.16
69796;BME280;57073;45.650;9.612;2023-04-09T14:36:01;99470.28;;;15.38;33.63
69796;BME280;57073;45.650;9.612;2023-04-09T14:41:02;99465.13;;;15.31;33.70
69796;BME280;57073;45.650;9.612;2023-04-09T14:46:02;99473.31;;;15.42;33.97
69796;BME280;57073;45.650;9.612;2023-04-09T14:51:03;99466.09;;;15.68;33.47
69796;BME280;57073;45.650;9.612;2023-04-09T14:56:04;99473.44;;;15.72;33.02
69796;BME280;57073;45.650;9.612;2023-04-09T15:01:04;99471.63;;;15.88;34.21
69796;BME280;57073;45.650;9.612;2023-04-09T15:06:05;99461.69;;;15.62;33.32
69796;BME280;57073;45.650;9.612;2023-04-09T15:11:05;99463.34;;;15.63;32.58
69796;BME280;57073;45.650;9.612;2023-04-09T15:16:07;99470.44;;;15.64;33.23
69796;BME280;57073;45.650;9.612;2023-04-09T15:21:08;99464.44;;;15.67;33.71
69796;BME280;57073;45.650;9.612;2023-04-09T15:26:08;99464.94;;;15.53;33.94
69796;BME280;57073;45.650;9.612;2023-04-09T15:31:08;99461.75;;;15.72;33.31
69796;BME280;57073;45.650;9.612;2023-04-09T15:36:09;99477.69;;;15.48;33.71
69796;BME280;57073;45.650;9.612;2023-04-09T15:41:10;99466.66;;;15.75;33.52
69796;BME280;57073;45.650;9.612;2023-04-09T15:46:11;99473.69;;;15.71;33.75
69796;BME280;57073;45.650;9.612;2023-04-09T15:51:11;99469.47;;;15.37;33.72
69796;BME280;57073;45.650;9.612;2023-04-09T15:56:11;99470.22;;;15.23;33.52
69796;BME280;57073;45.650;9.612;2023-04-09T16:01:14;99469.28;;;15.49;33.43
69796;BME280;57073;45.650;9.612;2023-04-09T16:06:15;99472.78;;;15.45;33.60
69796;BME280;57073;45.650;9.612;2023-04-09T16:11:15;99474.94;;;15.43;33.77
69796;BME280;57073;45.650;9.612;2023-04-09T16:16:16;99476.03;;;15.47;33.54
69796;BME280;57073;45.650;9.612;2023-04-09T16:21:16;99477.31;;;15.29;33.49
69796;BME280;57073;45.650;9.612;2023-04-09T16:26:17;99479.03;;;15.45;32.88
69796;BME280;57073;45.650;9.612;2023-04-09T16:31:17;99473.44;;;15.14;33.11
69796;BME280;57073;45.650;9.612;2023-04-09T16:36:17;99482.13;;;15.11;33.45
69796;BME280;57073;45.650;9.612;2023-04-09T16:41:18;99468.53;;;14.74;33.53
69796;BME280;57073;45.650;9.612;2023-04-09T16:46:18;99471.44;;;14.67;33.78
69796;BME280;57073;45.650;9.612;2023-04-09T16:51:19;99487.06;;;14.55;33.84
69796;BME280;57073;45.650;9.612;2023-04-09T16:56:20;99492.00;;;14.58;33.39
69796;BME280;57073;45.650;9.612;2023-04-09T17:01:20;99492.19;;;14.46;33.67
69796;BME280;57073;45.650;9.612;2023-04-09T17:06:20;99503.19;;;14.34;34.22
69796;BME280;57073;45.650;9.612;2023-04-09T17:11:21;99505.59;;;14.31;35.08
69796;BME280;57073;45.650;9.612;2023-04-09T17:16:22;99508.34;;;14.09;35.19
69796;BME280;57073;45.650;9.612;2023-04-09T17:21:23;99510.19;;;14.03;35.30
69796;BME280;57073;45.650;9.612;2023-04-09T17:26:23;99508.13;;;13.88;35.42
69796;BME280;57073;45.650;9.612;2023-04-09T17:31:23;99528.00;;;13.77;36.05
69796;BME280;57073;45.650;9.612;2023-04-09T17:36:25;99538.72;;;13.66;36.88
69796;BME280;57073;45.650;9.612;2023-04-09T17:41:26;99536.81;;;13.45;37.66
69796;BME280;57073;45.650;9.612;2023-04-09T17:46:27;99547.66;;;13.45;37.96
69796;BME280;57073;45.650;9.612;2023-04-09T17:51:28;99554.34;;;13.59;37.42
69796;BME280;57073;45.650;9.612;2023-04-09T17:56:28;99564.31;;;13.54;38.61
69796;BME280;57073;45.650;9.612;2023-04-09T18:01:29;99565.53;;;13.46;38.56
69796;BME280;57073;45.650;9.612;2023-04-09T18:06:30;99578.22;;;13.23;39.16
69796;BME280;57073;45.650;9.612;2023-04-09T18:11:30;99593.16;;;12.92;39.54
69796;BME280;57073;45.650;9.612;2023-04-09T18:16:30;99583.47;;;12.67;40.50
69796;BME280;57073;45.650;9.612;2023-04-09T18:21:31;99601.81;;;12.48;40.82
69796;BME280;57073;45.650;9.612;2023-04-09T18:26:32;99617.25;;;12.65;40.87
69796;BME280;57073;45.650;9.612;2023-04-09T18:31:35;99629.63;;;12.20;41.47
69796;BME280;57073;45.650;9.612;2023-04-09T18:36:36;99632.84;;;12.05;41.55
69796;BME280;57073;45.650;9.612;2023-04-09T18:41:36;99647.56;;;11.86;41.44
69796;BME280;57073;45.650;9.612;2023-04-09T18:46:37;99660.03;;;11.75;41.45
69796;BME280;57073;45.650;9.612;2023-04-09T18:51:37;99660.63;;;11.65;41.84
69796;BME280;57073;45.650;9.612;2023-04-09T18:56:37;99676.13;;;11.82;41.50
69796;BME280;57073;45.650;9.612;2023-04-09T19:01:38;99687.03;;;11.75;41.53
69796;BME280;57073;45.650;9.612;2023-04-09T19:06:38;99703.47;;;11.73;41.74
69796;BME280;57073;45.650;9.612;2023-04-09T19:11:38;99713.78;;;11.53;42.12
69796;BME280;57073;45.650;9.612;2023-04-09T19:16:39;99720.88;;;11.66;42.80
69796;BME280;57073;45.650;9.612;2023-04-09T19:21:39;99722.19;;;11.33;42.79
69796;BME280;57073;45.650;9.612;2023-04-09T19:26:40;99737.25;;;11.52;42.56
69796;BME280;57073;45.650;9.612;2023-04-09T19:31:40;99740.31;;;11.14;43.54
69796;BME280;57073;45.650;9.612;2023-04-09T19:36:40;99750.38;;;10.76;44.42
69796;BME280;57073;45.650;9.612;2023-04-09T19:41:41;99762.66;;;10.91;44.27
69796;BME280;57073;45.650;9.612;2023-04-09T19:46:41;99761.00;;;10.90;43.82
69796;BME280;57073;45.650;9.612;2023-04-09T19:51:41;99768.13;;;10.66;44.60
69796;BME280;57073;45.650;9.612;2023-04-09T19:56:42;99775.81;;;10.99;43.95
69796;BME280;57073;45.650;9.612;2023-04-09T20:01:42;99781.47;;;10.60;45.37
69796;BME280;57073;45.650;9.612;2023-04-09T20:06:43;99785.69;;;10.56;45.90
69796;BME280;57073;45.650;9.612;2023-04-09T20:11:43;99781.16;;;10.87;45.27
69796;BME280;57073;45.650;9.612;2023-04-09T20:16:44;99783.84;;;10.87;44.95
69796;BME280;57073;45.650;9.612;2023-04-09T20:21:44;99799.44;;;10.67;45.35
69796;BME280;57073;45.650;9.612;2023-04-09T20:26:45;99791.06;;;10.75;45.28
69796;BME280;57073;45.650;9.612;2023-04-09T20:31:46;99802.00;;;10.61;45.28
69796;BME280;57073;45.650;9.612;2023-04-09T20:36:47;99798.81;;;10.83;44.66
69796;BME280;57073;45.650;9.612;2023-04-09T20:41:47;99805.91;;;10.47;44.55
69796;BME280;57073;45.650;9.612;2023-04-09T20:46:48;99825.47;;;10.36;44.61
69796;BME280;57073;45.650;9.612;2023-04-09T20:51:48;99815.94;;;10.58;43.88
69796;BME280;57073;45.650;9.612;2023-04-09T20:56:49;99817.44;;;10.54;44.22
69796;BME280;57073;45.650;9.612;2023-04-09T21:01:50;99827.91;;;10.81;44.17
69796;BME280;57073;45.650;9.612;2023-04-09T21:06:51;99833.25;;;10.51;44.30
69796;BME280;57073;45.650;9.612;2023-04-09T21:11:51;99845.22;;;10.73;43.78
69796;BME280;57073;45.650;9.612;2023-04-09T21:16:52;99842.22;;;10.63;43.61
69796;BME280;57073;45.650;9.612;2023-04-09T21:21:54;99846.78;;;10.63;43.17
69796;BME280;57073;45.650;9.612;2023-04-09T21:26:55;99839.28;;;10.83;42.33
69796;BME280;57073;45.650;9.612;2023-04-09T21:31:55;99847.53;;;10.70;42.40
69796;BME280;57073;45.650;9.612;2023-04-09T21:36:56;99848.47;;;10.82;42.72
69796;BME280;57073;45.650;9.612;2023-04-09T21:41:56;99856.47;;;10.70;42.68
69796;BME280;57073;45.650;9.612;2023-04-09T21:46:57;99855.41;;;10.71;41.82
69796;BME280;57073;45.650;9.612;2023-04-09T21:51:57;99854.81;;;10.26;42.32
69796;BME280;57073;45.650;9.612;2023-04-09T21:56:59;99863.16;;;10.42;42.33
69796;BME280;57073;45.650;9.612;2023-04-09T22:02:00;99864.25;;;10.60;41.52
69796;BME280;57073;45.650;9.612;2023-04-09T22:07:01;99870.31;;;10.55;41.97
69796;BME280;57073;45.650;9.612;2023-04-09T22:12:01;99874.09;;;10.22;42.26
69796;BME280;57073;45.650;9.612;2023-04-09T22:17:02;99877.19;;;10.26;42.98
69796;BME280;57073;45.650;9.612;2023-04-09T22:22:02;99873.44;;;10.52;42.37
69796;BME280;57073;45.650;9.612;2023-04-09T22:27:02;99873.97;;;9.85;43.19
69796;BME280;57073;45.650;9.612;2023-04-09T22:32:03;99872.72;;;10.13;43.28
69796;BME280;57073;45.650;9.612;2023-04-09T22:37:03;99892.66;;;10.37;42.21
69796;BME280;57073;45.650;9.612;2023-04-09T22:42:04;99889.16;;;10.30;42.70
69796;BME280;57073;45.650;9.612;2023-04-09T22:47:04;99889.78;;;10.07;43.58
69796;BME280;57073;45.650;9.612;2023-04-09T22:52:05;99904.34;;;10.24;43.61
69796;BME280;57073;45.650;9.612;2023-04-09T22:57:05;99902.63;;;10.37;43.34
69796;BME280;57073;45.650;9.612;2023-04-09T23:02:06;99907.16;;;10.11;43.50
69796;BME280;57073;45.650;9.612;2023-04-09T23:07:06;99905.41;;;9.92;43.81
69796;BME280;57073;45.650;9.612;2023-04-09T23:12:08;99915.63;;;10.15;43.93
69796;BME280;57073;45.650;9.612;2023-04-09T23:17:08;99919.16;;;9.83;44.77
69796;BME280;57073;45.650;9.612;2023-04-09T23:22:09;99917.91;;;9.48;45.20
69796;BME280;57073;45.650;9.612;2023-04-09T23:27:09;99911.31;;;9.75;45.07
69796;BME280;57073;45.650;9.612;2023-04-09T23:32:10;99913.47;;;9.60;45.22
69796;BME280;57073;45.650;9.612;2023-04-09T23:37:10;99919.53;;;9.49;45.18
69796;BME280;57073;45.650;9.612;2023-04-09T23:42:10;99903.50;;;9.22;45.73
69796;BME280;57073;45.650;9.612;2023-04-09T23:47:11;99903.84;;;9.39;45.28
69796;BME280;57073;45.650;9.612;2023-04-09T23:52:12;99906.97;;;9.36;44.96
69796;BME280;57073;45.650;9.612;2023-04-09T23:57:13;99910.34;;;9.18;45.87
